createdAt,value
2019-06-07T08:43:47.077Z,3.90
2019-06-07T08:46:20.119Z,4.92
2019-06-07T08:48:53.966Z,4.87
2019-06-07T08:51:26.676Z,4.55
2019-06-07T08:54:20.611Z,4.42
2019-06-07T08:56:34.015Z,4.40
2019-06-07T08:59:11.577Z,3.83
2019-06-07T09:01:40.951Z,4.62
2019-06-07T09:04:14.006Z,4.50
2019-06-07T09:07:09.188Z,4.30
2019-06-07T09:09:21.526Z,4.20
2019-06-07T09:11:54.713Z,4.05
2019-06-07T09:14:27.558Z,4.50
2019-06-07T09:17:04.765Z,4.53
2019-06-07T09:19:33.672Z,3.62
2019-06-07T09:22:10.814Z,3.98
2019-06-07T09:24:40.506Z,2.85
2019-06-07T09:27:12.696Z,2.80
2019-06-07T09:29:46.167Z,2.58
2019-06-07T09:32:19.216Z,2.60
2019-06-07T09:34:51.726Z,3.00
2019-06-07T09:40:10.619Z,2.40
2019-06-07T09:42:33.962Z,2.80
2019-06-07T09:45:12.411Z,2.70
2019-06-07T09:47:45.834Z,2.55
2019-06-07T09:50:21.995Z,2.40
2019-06-07T09:53:04.832Z,2.20
2019-06-07T09:55:34.467Z,2.27
2019-06-07T09:58:48.357Z,2.30
2019-06-07T10:00:46.534Z,2.40
2019-06-07T10:03:22.918Z,2.47
2019-06-07T10:05:59.566Z,2.42
2019-06-07T10:09:57.045Z,2.45
2019-06-07T10:11:10.658Z,2.65
2019-06-07T10:13:44.362Z,2.65
2019-06-07T10:16:16.771Z,2.65
2019-06-07T10:18:49.321Z,2.83
2019-06-07T10:21:22.065Z,4.12
2019-06-07T10:23:54.236Z,3.80
2019-06-07T10:26:26.865Z,2.65
2019-06-07T10:28:59.761Z,2.58
2019-06-07T10:31:32.149Z,2.60
2019-06-07T10:34:04.442Z,2.65
2019-06-07T10:36:37.241Z,2.65
2019-06-07T10:39:11.190Z,2.42
2019-06-07T10:41:43.564Z,2.70
2019-06-07T10:44:15.761Z,2.30
2019-06-07T10:46:48.278Z,2.45
2019-06-07T10:49:20.542Z,2.58
2019-06-07T10:51:53.330Z,2.87
2019-06-07T10:54:30.371Z,3.02
2019-06-07T10:56:59.542Z,3.75
2019-06-07T10:59:32.022Z,3.67
2019-06-07T11:02:05.604Z,3.80
2019-06-07T11:04:38.049Z,3.90
2019-06-07T11:07:10.236Z,3.70
2019-06-07T11:09:42.509Z,3.30
2019-06-07T11:12:15.484Z,3.37
2019-06-07T11:14:47.832Z,3.45
2019-06-07T11:17:20.162Z,3.30
2019-06-07T11:19:52.772Z,3.00
2019-06-07T11:22:25.438Z,3.47
2019-06-07T11:24:57.842Z,3.12
2019-06-07T11:27:31.993Z,3.37
2019-06-07T11:30:06.205Z,3.17
2019-06-07T11:32:38.818Z,3.47
2019-06-07T11:35:12.283Z,3.67
2019-06-07T11:37:45.322Z,3.70
2019-06-07T11:40:29.731Z,3.70
2019-06-07T11:42:52.885Z,4.08
2019-06-07T11:45:25.302Z,3.65
2019-06-07T11:47:59.854Z,4.17
2019-06-07T11:50:32.862Z,3.83
2019-06-07T11:53:06.456Z,4.47
2019-06-07T11:55:38.855Z,4.90
2019-06-07T11:58:16.080Z,5.05
2019-06-07T12:00:46.433Z,4.72
2019-06-07T12:03:19.077Z,5.05
2019-06-07T12:05:51.335Z,5.67
2019-06-07T12:08:23.819Z,7.78
2019-06-07T12:10:56.323Z,11.65
2019-06-07T12:13:28.756Z,10.93
2019-06-07T12:16:01.152Z,10.03
2019-06-07T12:18:33.444Z,8.13
2019-06-07T12:21:05.952Z,11.30
2019-06-07T12:23:38.479Z,14.73
2019-06-07T12:26:12.201Z,16.90
2019-06-07T12:28:44.603Z,11.73
2019-06-07T12:31:17.224Z,10.13
2019-06-07T12:33:49.637Z,9.25
2019-06-07T12:36:22.368Z,10.00
2019-06-07T12:38:54.966Z,10.40
2019-06-07T12:41:27.361Z,11.48
2019-06-07T12:44:00.091Z,13.93
2019-06-07T12:46:32.398Z,13.78
2019-06-07T12:49:05.050Z,15.48
2019-06-07T12:51:37.591Z,16.52
2019-06-07T12:54:10.218Z,12.73
2019-06-07T12:56:42.736Z,13.28
2019-06-07T12:59:15.949Z,13.65
2019-06-07T13:01:48.310Z,13.35
2019-06-07T13:04:20.669Z,13.65
2019-06-07T13:06:53.068Z,15.05
2019-06-07T13:09:25.389Z,15.38
2019-06-07T13:11:57.603Z,15.95
2019-06-07T13:14:30.203Z,15.38
2019-06-07T13:17:02.968Z,16.02
2019-06-07T13:19:35.451Z,23.15
2019-06-07T13:22:07.740Z,26.40
2019-06-07T13:24:40.307Z,24.32
2019-06-07T13:27:12.856Z,21.35
2019-06-07T13:29:45.281Z,21.48
2019-06-07T13:32:17.639Z,20.02
2019-06-07T13:34:50.037Z,19.00
2019-06-07T13:37:23.373Z,16.65
2019-06-07T13:39:55.964Z,15.45
2019-06-07T13:42:28.657Z,15.85
2019-06-07T13:45:00.977Z,14.05
2019-06-07T13:47:33.948Z,14.18
2019-06-07T13:50:08.146Z,14.93
2019-06-07T13:52:41.955Z,17.02
2019-06-07T13:55:14.949Z,16.62
2019-06-07T13:57:47.413Z,17.07
2019-06-07T14:00:22.974Z,15.53
2019-06-07T14:02:55.001Z,15.13
2019-06-07T14:05:29.031Z,15.88
2019-06-07T14:08:01.299Z,15.20
2019-06-07T14:10:33.919Z,14.68
2019-06-07T14:13:06.363Z,14.28
2019-06-07T14:15:39.148Z,13.40
2019-06-07T14:18:11.836Z,13.78
2019-06-07T14:20:45.235Z,15.20
2019-06-07T14:23:17.556Z,15.35
2019-06-07T14:25:49.970Z,14.93
2019-06-07T14:28:24.785Z,15.80
2019-06-07T14:30:56.417Z,13.53
2019-06-07T14:33:30.162Z,14.33
2019-06-07T14:36:02.464Z,12.45
2019-06-07T14:38:37.507Z,11.65
2019-06-07T14:41:09.075Z,11.40
2019-06-07T14:43:41.581Z,11.90
2019-06-07T14:46:14.882Z,11.65
2019-06-07T14:48:47.278Z,12.30
2019-06-07T14:51:19.700Z,12.73
2019-06-07T14:53:52.106Z,11.00
2019-06-07T14:56:24.854Z,12.20
2019-06-07T14:58:57.047Z,11.35
2019-06-07T15:01:30.694Z,11.65
2019-06-07T15:04:04.738Z,13.75
2019-06-07T15:06:38.882Z,12.37
2019-06-07T15:09:11.078Z,10.35
2019-06-07T15:11:43.946Z,10.05
2019-06-07T15:14:16.858Z,9.65
2019-06-07T15:16:49.819Z,11.60
2019-06-07T15:19:24.212Z,11.18
2019-06-07T15:21:56.705Z,9.85
2019-06-07T15:24:32.568Z,9.45
2019-06-07T15:27:03.078Z,10.40
2019-06-07T15:29:36.000Z,10.00
2019-06-07T15:32:08.626Z,9.05
2019-06-07T15:34:41.529Z,8.25
2019-06-07T15:37:14.215Z,8.10
2019-06-07T15:39:47.170Z,8.38
2019-06-07T15:42:19.576Z,8.60
2019-06-07T15:44:51.889Z,8.58
2019-06-07T15:47:24.206Z,8.90
2019-06-07T15:49:56.430Z,8.10
2019-06-07T15:52:29.490Z,8.15
2019-06-07T15:55:01.975Z,8.65
2019-06-07T15:57:35.153Z,8.78
2019-06-07T16:00:09.725Z,11.60
2019-06-07T16:02:42.276Z,15.18
2019-06-07T16:05:14.924Z,12.98
2019-06-07T16:07:47.502Z,11.80
2019-06-07T16:10:20.421Z,11.83
2019-06-07T16:13:00.292Z,9.58
2019-06-07T16:15:26.592Z,8.80
2019-06-07T16:17:59.206Z,9.78
2019-06-07T16:20:31.622Z,9.90
2019-06-07T16:23:04.063Z,9.40
2019-06-07T16:25:36.442Z,9.25
2019-06-07T16:28:08.703Z,8.43
2019-06-07T16:30:40.989Z,7.72
2019-06-07T16:33:13.684Z,8.48
2019-06-07T16:35:45.989Z,8.13
2019-06-07T16:38:18.830Z,8.63
2019-06-07T16:40:51.226Z,8.75
2019-06-07T16:43:23.854Z,8.55
2019-06-07T16:45:56.128Z,8.53
2019-06-07T16:48:28.646Z,7.95
2019-06-07T16:51:00.845Z,7.87
2019-06-07T16:53:33.682Z,8.18
2019-06-07T16:56:06.595Z,8.75
2019-06-07T16:58:40.130Z,10.05
2019-06-07T17:01:12.554Z,9.88
2019-06-07T17:03:45.684Z,10.03
2019-06-07T17:06:18.228Z,9.70
2019-06-07T17:08:50.883Z,9.10
2019-06-07T17:11:23.146Z,8.95
2019-06-07T17:13:55.450Z,9.83
2019-06-07T17:16:27.646Z,9.35
2019-06-07T17:19:00.438Z,9.95
2019-06-07T17:21:32.840Z,9.53
2019-06-07T17:24:05.494Z,9.80
2019-06-07T17:26:37.798Z,9.28
2019-06-07T17:29:10.029Z,9.10
2019-06-07T17:31:42.347Z,8.65
2019-06-07T17:34:15.251Z,10.18
2019-06-07T17:36:48.545Z,10.03
2019-06-07T17:39:21.318Z,10.18
2019-06-07T17:42:01.707Z,9.95
2019-06-07T17:44:27.378Z,9.20
2019-06-07T17:47:00.260Z,10.10
2019-06-07T17:49:32.543Z,10.70
2019-06-07T17:52:05.020Z,11.12
2019-06-07T17:54:37.971Z,11.48
2019-06-07T17:57:10.145Z,11.05
2019-06-07T17:59:42.532Z,11.40
2019-06-07T18:02:15.861Z,10.88
2019-06-07T18:04:49.208Z,11.22
2019-06-07T18:07:22.947Z,10.80
2019-06-07T18:09:57.230Z,10.80
2019-06-07T18:12:29.632Z,10.82
2019-06-07T18:15:02.258Z,10.32
2019-06-07T18:17:35.088Z,10.72
2019-06-07T18:20:08.846Z,9.93
2019-06-07T18:22:41.276Z,9.45
2019-06-07T18:25:13.866Z,9.33
2019-06-07T18:27:46.535Z,9.93
2019-06-07T18:30:19.166Z,10.68
2019-06-07T18:32:52.921Z,10.70
2019-06-07T18:35:25.566Z,11.20
2019-06-07T18:37:59.093Z,11.70
2019-06-07T18:40:32.154Z,10.13
2019-06-07T18:43:04.669Z,11.00
2019-06-07T18:45:37.083Z,11.43
2019-06-07T18:48:09.399Z,12.47
2019-06-07T18:50:41.683Z,12.33
2019-06-07T18:53:14.355Z,11.95
2019-06-07T18:55:47.731Z,11.68
2019-06-07T18:58:20.431Z,11.60
2019-06-07T19:00:53.825Z,11.90
2019-06-07T19:03:26.274Z,11.03
2019-06-07T19:05:58.962Z,11.28
2019-06-07T19:08:31.536Z,10.93
2019-06-07T19:11:04.225Z,12.25
2019-06-07T19:13:36.492Z,11.20
2019-06-07T19:16:08.904Z,10.45
2019-06-07T19:18:41.112Z,9.83
2019-06-07T19:21:13.267Z,9.98
2019-06-07T19:23:45.561Z,10.40
2019-06-07T19:26:18.107Z,9.88
2019-06-07T19:28:50.598Z,10.08
2019-06-07T19:31:23.093Z,10.43
2019-06-07T19:33:55.538Z,9.83
2019-06-07T19:36:27.823Z,9.38
2019-06-07T19:39:00.448Z,9.63
2019-06-07T19:41:33.975Z,10.98
2019-06-07T19:44:06.628Z,10.72
2019-06-07T19:46:39.321Z,10.75
2019-06-07T19:49:11.849Z,10.72
2019-06-07T19:51:44.583Z,11.05
2019-06-07T19:54:16.979Z,10.68
2019-06-07T19:56:49.312Z,10.82
2019-06-07T19:59:21.718Z,11.83
2019-06-07T20:01:54.012Z,12.70
2019-06-07T20:04:26.519Z,11.70
2019-06-07T20:07:00.215Z,12.55
2019-06-07T20:09:32.636Z,12.33
2019-06-07T20:12:05.559Z,12.80
2019-06-07T20:14:38.351Z,11.60
2019-06-07T20:17:10.900Z,11.08
2019-06-07T20:19:43.436Z,11.95
2019-06-07T20:22:15.980Z,11.03
2019-06-07T20:24:48.333Z,10.58
2019-06-07T20:27:21.932Z,12.60
2019-06-07T20:29:54.255Z,11.93
2019-06-07T20:32:26.842Z,11.78
2019-06-07T20:35:01.521Z,11.25
2019-06-07T20:37:34.022Z,12.53
2019-06-07T20:40:22.715Z,12.90
2019-06-07T20:42:42.261Z,12.65
2019-06-07T20:45:14.858Z,12.93
2019-06-07T20:47:47.286Z,12.50
2019-06-07T20:50:20.115Z,12.35
2019-06-07T20:52:52.443Z,12.18
2019-06-07T20:55:24.722Z,12.40
2019-06-07T20:57:58.964Z,12.33
2019-06-07T21:00:31.070Z,10.70
2019-06-07T21:03:03.404Z,10.70
2019-06-07T21:05:35.596Z,10.00
2019-06-07T21:08:10.777Z,10.60
2019-06-07T21:10:41.753Z,10.30
2019-06-07T21:13:14.076Z,10.55
2019-06-07T21:15:49.160Z,12.75
2019-06-07T21:18:20.434Z,11.95
2019-06-07T21:20:52.855Z,11.63
2019-06-07T21:23:25.361Z,10.90
2019-06-07T21:25:57.941Z,11.50
2019-06-07T21:28:30.317Z,12.28
2019-06-07T21:31:03.789Z,11.80
2019-06-07T21:33:36.719Z,11.88
2019-06-07T21:36:09.780Z,11.63
2019-06-07T21:38:42.709Z,10.65
2019-06-07T21:41:15.058Z,11.22
2019-06-07T21:43:47.513Z,11.55
2019-06-07T21:46:20.769Z,12.15
2019-06-07T21:48:54.099Z,11.03
2019-06-07T21:51:26.858Z,11.73
2019-06-07T21:53:59.646Z,12.13
2019-06-07T21:56:32.229Z,11.48
2019-06-07T21:59:05.088Z,13.10
2019-06-07T22:01:38.604Z,13.40
2019-06-07T22:04:11.724Z,13.68
2019-06-07T22:06:44.206Z,14.63
2019-06-07T22:09:16.764Z,13.60
2019-06-07T22:11:49.168Z,12.85
2019-06-07T22:14:22.852Z,11.95
2019-06-07T22:16:55.143Z,12.45
2019-06-07T22:19:27.473Z,11.10
2019-06-07T22:22:03.033Z,12.13
2019-06-07T22:24:33.643Z,12.95
2019-06-07T22:27:07.072Z,11.73
2019-06-07T22:29:39.652Z,11.05
2019-06-07T22:32:12.991Z,11.33
2019-06-07T22:34:45.674Z,11.10
2019-06-07T22:37:23.272Z,11.28
2019-06-07T22:39:52.058Z,12.65
2019-06-07T22:42:24.576Z,11.88
2019-06-07T22:44:57.217Z,11.40
2019-06-07T22:47:29.579Z,10.45
2019-06-07T22:50:02.652Z,9.90
2019-06-07T22:52:35.107Z,11.08
2019-06-07T22:55:10.070Z,10.03
2019-06-07T22:57:44.276Z,9.40
2019-06-07T23:00:19.405Z,9.28
2019-06-07T23:02:51.014Z,9.20
2019-06-07T23:05:23.307Z,9.13
2019-06-07T23:07:57.163Z,10.38
2019-06-07T23:10:29.444Z,11.40
2019-06-07T23:13:02.321Z,10.53
2019-06-07T23:15:35.029Z,10.95
2019-06-07T23:18:07.720Z,10.35
2019-06-07T23:20:39.920Z,10.20
2019-06-07T23:23:12.665Z,11.70
2019-06-07T23:25:45.493Z,10.65
2019-06-07T23:28:18.744Z,11.08
2019-06-07T23:30:51.890Z,11.45
2019-06-07T23:33:24.356Z,11.20
2019-06-07T23:35:56.705Z,12.05
2019-06-07T23:38:29.354Z,11.33
2019-06-07T23:41:02.069Z,9.45
2019-06-07T23:43:34.365Z,10.18
2019-06-07T23:46:06.591Z,9.40
2019-06-07T23:48:38.907Z,9.85
2019-06-07T23:51:11.637Z,12.20
2019-06-07T23:53:44.291Z,21.20
2019-06-07T23:56:18.331Z,23.75
2019-06-07T23:58:50.492Z,16.55
